Terminal Aerodrome Forecast
Issued by NWS

Home | Current Version | Previous Version | Text Only | Print | Product List | Glossary On
Versions: 1 2 3 4 5 6 7 8 9 10 11 12 13 14 15 16 17 18 19 20
804
FTUS41 KCAR 270757 AAF
TAFFVE
TAF AMD
KFVE 270757Z 2708/2806 29005KT 2SM BR SCT080
      TEMPO 2708/2710 1/2SM FG BKN001
     FM271100 24003KT P6SM FEW250
     FM271800 25006KT P6SM SCT050
      TEMPO 2803/2806 -SHRA BKN050=

USA.gov is the U.S. government's official web portal to all federal, state and local government web resources and services.